Windham, Montana
Current Conditions -  °F | °C
As of 8:54 PM on Friday 24 Oct 2014 (Local Time) from KLWT Reporting Station
Light Rain Light Rain  
Wind Chill: 45°   Ceiling: 5000
Heat Index: 47°   Visibility: 10mi
Dew Point: 42°   Wind: 5mph
Humidity: 83%   Direction: 140°SE
Pressure: 30.11"   Gusts: NA
Location:  47.1454°N, 110.159°W
Report Text: KLWT 250254Z AUTO 14004KT 10SM -RA BKN050 OVC075 08/06 A3011 RMK AO2 RAB0155 SLP194 P0001 60001 T00830056 53015
Loading
Personal Weather Stations






























Interactive Weather Map
Tropical Storm Tracking
New forecast layout! Learn more

10-Day Weather Forecast

Advertisements
Track Severe Weather on mobile